sensor_id;sensor_type;location;lat;lon;timestamp;pressure;altitude;pressure_sealevel;temperature;humidity
62632;BME280;48703;51.248;-0.546;2023-01-30T00:01:32;101599;;;6.50;92.25
62632;BME280;48703;51.248;-0.546;2023-01-30T00:04:33;101607;;;6.50;92.30
62632;BME280;48703;51.248;-0.546;2023-01-30T00:07:35;101607;;;6.49;92.16
62632;BME280;48703;51.248;-0.546;2023-01-30T00:10:37;101615;;;6.49;92.24
62632;BME280;48703;51.248;-0.546;2023-01-30T00:13:39;101620;;;6.49;92.23
62632;BME280;48703;51.248;-0.546;2023-01-30T00:16:41;101625;;;6.51;92.25
62632;BME280;48703;51.248;-0.546;2023-01-30T00:19:43;101613;;;6.53;92.21
62632;BME280;48703;51.248;-0.546;2023-01-30T00:22:45;101606;;;6.55;92.25
62632;BME280;48703;51.248;-0.546;2023-01-30T00:25:46;101595;;;6.55;92.07
62632;BME280;48703;51.248;-0.546;2023-01-30T00:28:48;101588;;;6.55;92.01
62632;BME280;48703;51.248;-0.546;2023-01-30T00:31:50;101590;;;6.56;92.04
62632;BME280;48703;51.248;-0.546;2023-01-30T00:34:52;101591;;;6.56;91.98
62632;BME280;48703;51.248;-0.546;2023-01-30T00:37:54;101590;;;6.57;92.03
62632;BME280;48703;51.248;-0.546;2023-01-30T00:40:56;101594;;;6.57;92.22
62632;BME280;48703;51.248;-0.546;2023-01-30T00:43:58;101597;;;6.57;92.04
62632;BME280;48703;51.248;-0.546;2023-01-30T00:47:00;101602;;;6.58;92.12
62632;BME280;48703;51.248;-0.546;2023-01-30T00:50:02;101600;;;6.58;92.13
62632;BME280;48703;51.248;-0.546;2023-01-30T00:53:04;101593;;;6.60;92.25
62632;BME280;48703;51.248;-0.546;2023-01-30T00:56:05;101594;;;6.60;92.16
62632;BME280;48703;51.248;-0.546;2023-01-30T00:59:07;101596;;;6.61;92.27
62632;BME280;48703;51.248;-0.546;2023-01-30T01:02:09;101599;;;6.61;92.00
62632;BME280;48703;51.248;-0.546;2023-01-30T01:05:11;101602;;;6.60;92.12
62632;BME280;48703;51.248;-0.546;2023-01-30T01:08:13;101609;;;6.61;92.23
62632;BME280;48703;51.248;-0.546;2023-01-30T01:11:15;101612;;;6.61;92.25
62632;BME280;48703;51.248;-0.546;2023-01-30T01:14:17;101600;;;6.62;92.34
62632;BME280;48703;51.248;-0.546;2023-01-30T01:17:19;101592;;;6.64;92.26
62632;BME280;48703;51.248;-0.546;2023-01-30T01:20:21;101585;;;6.65;92.24
62632;BME280;48703;51.248;-0.546;2023-01-30T01:23:23;101586;;;6.64;92.39
62632;BME280;48703;51.248;-0.546;2023-01-30T01:26:24;101586;;;6.66;92.46
62632;BME280;48703;51.248;-0.546;2023-01-30T01:29:26;101579;;;6.67;92.39
62632;BME280;48703;51.248;-0.546;2023-01-30T01:32:28;101576;;;6.70;92.60
62632;BME280;48703;51.248;-0.546;2023-01-30T01:35:30;101573;;;6.72;92.71
62632;BME280;48703;51.248;-0.546;2023-01-30T01:38:32;101570;;;6.72;92.62
62632;BME280;48703;51.248;-0.546;2023-01-30T01:41:34;101562;;;6.73;92.63
62632;BME280;48703;51.248;-0.546;2023-01-30T01:44:56;101560;;;6.73;92.78
62632;BME280;48703;51.248;-0.546;2023-01-30T01:47:38;101569;;;6.74;92.89
62632;BME280;48703;51.248;-0.546;2023-01-30T01:50:41;101567;;;6.77;93.19
62632;BME280;48703;51.248;-0.546;2023-01-30T01:53:42;101567;;;6.80;93.06
62632;BME280;48703;51.248;-0.546;2023-01-30T01:56:44;101563;;;6.82;93.16
62632;BME280;48703;51.248;-0.546;2023-01-30T01:59:47;101561;;;6.84;93.03
62632;BME280;48703;51.248;-0.546;2023-01-30T02:02:48;101561;;;6.86;93.03
62632;BME280;48703;51.248;-0.546;2023-01-30T02:05:50;101563;;;6.87;93.07
62632;BME280;48703;51.248;-0.546;2023-01-30T02:08:52;101565;;;6.90;93.24
62632;BME280;48703;51.248;-0.546;2023-01-30T02:11:55;101558;;;6.93;93.03
62632;BME280;48703;51.248;-0.546;2023-01-30T02:14:55;101552;;;6.95;93.00
62632;BME280;48703;51.248;-0.546;2023-01-30T02:17:57;101562;;;6.96;93.01
62632;BME280;48703;51.248;-0.546;2023-01-30T02:21:02;101561;;;6.97;92.99
62632;BME280;48703;51.248;-0.546;2023-01-30T02:25:07;101544;;;6.98;92.94
62632;BME280;48703;51.248;-0.546;2023-01-30T02:28:17;101544;;;6.98;92.88
62632;BME280;48703;51.248;-0.546;2023-01-30T02:31:07;101543;;;6.99;93.02
62632;BME280;48703;51.248;-0.546;2023-01-30T02:34:10;101537;;;6.99;92.81
62632;BME280;48703;51.248;-0.546;2023-01-30T02:37:13;101539;;;7.00;93.00
62632;BME280;48703;51.248;-0.546;2023-01-30T02:40:14;101546;;;7.00;92.91
62632;BME280;48703;51.248;-0.546;2023-01-30T02:43:14;101542;;;7.00;92.83
62632;BME280;48703;51.248;-0.546;2023-01-30T02:46:16;101543;;;7.00;92.95
62632;BME280;48703;51.248;-0.546;2023-01-30T02:49:17;101545;;;6.99;92.86
62632;BME280;48703;51.248;-0.546;2023-01-30T02:52:18;101546;;;7.01;92.97
62632;BME280;48703;51.248;-0.546;2023-01-30T02:55:21;101546;;;7.02;92.93
62632;BME280;48703;51.248;-0.546;2023-01-30T02:58:22;101545;;;7.04;92.99
62632;BME280;48703;51.248;-0.546;2023-01-30T03:01:36;101547;;;7.05;93.07
62632;BME280;48703;51.248;-0.546;2023-01-30T03:04:30;101553;;;7.08;93.09
62632;BME280;48703;51.248;-0.546;2023-01-30T03:07:31;101555;;;7.09;93.00
62632;BME280;48703;51.248;-0.546;2023-01-30T03:10:31;101554;;;7.13;93.08
62632;BME280;48703;51.248;-0.546;2023-01-30T03:13:36;101554;;;7.14;93.04
62632;BME280;48703;51.248;-0.546;2023-01-30T03:16:35;101549;;;7.16;93.07
62632;BME280;48703;51.248;-0.546;2023-01-30T03:19:35;101554;;;7.19;93.02
62632;BME280;48703;51.248;-0.546;2023-01-30T03:22:37;101553;;;7.20;93.00
62632;BME280;48703;51.248;-0.546;2023-01-30T03:25:39;101552;;;7.22;93.01
62632;BME280;48703;51.248;-0.546;2023-01-30T03:28:41;101557;;;7.24;93.03
62632;BME280;48703;51.248;-0.546;2023-01-30T03:31:43;101562;;;7.24;92.95
62632;BME280;48703;51.248;-0.546;2023-01-30T03:34:45;101571;;;7.25;93.04
62632;BME280;48703;51.248;-0.546;2023-01-30T03:37:47;101572;;;7.26;92.94
62632;BME280;48703;51.248;-0.546;2023-01-30T03:40:49;101576;;;7.27;92.96
62632;BME280;48703;51.248;-0.546;2023-01-30T03:43:50;101575;;;7.29;92.88
62632;BME280;48703;51.248;-0.546;2023-01-30T03:46:52;101570;;;7.28;92.79
62632;BME280;48703;51.248;-0.546;2023-01-30T03:49:54;101568;;;7.29;92.76
62632;BME280;48703;51.248;-0.546;2023-01-30T03:52:56;101571;;;7.28;92.74
62632;BME280;48703;51.248;-0.546;2023-01-30T03:55:58;101575;;;7.27;92.81
62632;BME280;48703;51.248;-0.546;2023-01-30T03:59:00;101576;;;7.27;92.88
62632;BME280;48703;51.248;-0.546;2023-01-30T04:02:02;101569;;;7.26;92.88
62632;BME280;48703;51.248;-0.546;2023-01-30T04:05:04;101569;;;7.25;92.90
62632;BME280;48703;51.248;-0.546;2023-01-30T04:08:06;101568;;;7.26;92.88
62632;BME280;48703;51.248;-0.546;2023-01-30T04:11:07;101569;;;7.26;92.96
62632;BME280;48703;51.248;-0.546;2023-01-30T04:14:09;101573;;;7.26;92.98
62632;BME280;48703;51.248;-0.546;2023-01-30T04:17:11;101581;;;7.26;93.11
62632;BME280;48703;51.248;-0.546;2023-01-30T04:20:13;101577;;;7.27;93.18
62632;BME280;48703;51.248;-0.546;2023-01-30T04:23:15;101576;;;7.27;93.04
62632;BME280;48703;51.248;-0.546;2023-01-30T04:26:17;101585;;;7.27;93.13
62632;BME280;48703;51.248;-0.546;2023-01-30T04:29:19;101583;;;7.27;93.14
62632;BME280;48703;51.248;-0.546;2023-01-30T04:32:21;101591;;;7.27;93.32
62632;BME280;48703;51.248;-0.546;2023-01-30T04:35:23;101592;;;7.28;93.28
62632;BME280;48703;51.248;-0.546;2023-01-30T04:38:25;101595;;;7.28;93.28
62632;BME280;48703;51.248;-0.546;2023-01-30T04:41:26;101597;;;7.29;93.29
62632;BME280;48703;51.248;-0.546;2023-01-30T04:44:28;101595;;;7.29;93.24
62632;BME280;48703;51.248;-0.546;2023-01-30T04:47:30;101594;;;7.29;93.28
62632;BME280;48703;51.248;-0.546;2023-01-30T04:50:32;101601;;;7.27;93.12
62632;BME280;48703;51.248;-0.546;2023-01-30T04:53:34;101599;;;7.28;93.47
62632;BME280;48703;51.248;-0.546;2023-01-30T04:56:36;101611;;;7.29;93.45
62632;BME280;48703;51.248;-0.546;2023-01-30T04:59:38;101604;;;7.30;93.57
62632;BME280;48703;51.248;-0.546;2023-01-30T05:02:40;101608;;;7.28;93.45
62632;BME280;48703;51.248;-0.546;2023-01-30T05:05:42;101619;;;7.26;93.35
62632;BME280;48703;51.248;-0.546;2023-01-30T05:08:46;101623;;;7.24;93.37
62632;BME280;48703;51.248;-0.546;2023-01-30T05:11:45;101628;;;7.22;93.43
62632;BME280;48703;51.248;-0.546;2023-01-30T05:14:47;101632;;;7.19;93.39
62632;BME280;48703;51.248;-0.546;2023-01-30T05:17:49;101634;;;7.16;93.34
62632;BME280;48703;51.248;-0.546;2023-01-30T05:20:51;101635;;;7.13;93.41
62632;BME280;48703;51.248;-0.546;2023-01-30T05:23:53;101637;;;7.09;93.24
62632;BME280;48703;51.248;-0.546;2023-01-30T05:26:55;101640;;;7.05;93.10
62632;BME280;48703;51.248;-0.546;2023-01-30T05:29:57;101644;;;7.00;93.01
62632;BME280;48703;51.248;-0.546;2023-01-30T05:32:59;101655;;;6.93;92.74
62632;BME280;48703;51.248;-0.546;2023-01-30T05:36:01;101660;;;6.87;92.90
62632;BME280;48703;51.248;-0.546;2023-01-30T05:39:03;101661;;;6.84;93.39
62632;BME280;48703;51.248;-0.546;2023-01-30T05:42:04;101654;;;6.80;93.42
62632;BME280;48703;51.248;-0.546;2023-01-30T05:45:07;101654;;;6.78;93.58
62632;BME280;48703;51.248;-0.546;2023-01-30T05:48:08;101650;;;6.73;93.90
62632;BME280;48703;51.248;-0.546;2023-01-30T05:51:14;101651;;;6.69;93.75
62632;BME280;48703;51.248;-0.546;2023-01-30T05:54:12;101654;;;6.67;93.98
62632;BME280;48703;51.248;-0.546;2023-01-30T05:57:14;101655;;;6.65;93.95
62632;BME280;48703;51.248;-0.546;2023-01-30T06:00:16;101656;;;6.63;94.24
62632;BME280;48703;51.248;-0.546;2023-01-30T06:03:18;101661;;;6.62;94.40
62632;BME280;48703;51.248;-0.546;2023-01-30T06:06:20;101673;;;6.59;94.54
62632;BME280;48703;51.248;-0.546;2023-01-30T06:09:21;101680;;;6.57;94.50
62632;BME280;48703;51.248;-0.546;2023-01-30T06:12:23;101690;;;6.56;94.35
62632;BME280;48703;51.248;-0.546;2023-01-30T06:15:25;101691;;;6.53;94.16
62632;BME280;48703;51.248;-0.546;2023-01-30T06:18:27;101691;;;6.50;94.11
62632;BME280;48703;51.248;-0.546;2023-01-30T06:21:29;101698;;;6.49;93.86
62632;BME280;48703;51.248;-0.546;2023-01-30T06:24:31;101698;;;6.50;93.45
62632;BME280;48703;51.248;-0.546;2023-01-30T06:27:33;101706;;;6.49;92.92
62632;BME280;48703;51.248;-0.546;2023-01-30T06:30:35;101705;;;6.48;91.89
62632;BME280;48703;51.248;-0.546;2023-01-30T06:33:37;101707;;;6.50;90.70
62632;BME280;48703;51.248;-0.546;2023-01-30T06:36:39;101713;;;6.50;89.97
62632;BME280;48703;51.248;-0.546;2023-01-30T06:39:40;101719;;;6.50;88.81
62632;BME280;48703;51.248;-0.546;2023-01-30T06:42:43;101718;;;6.50;87.83
62632;BME280;48703;51.248;-0.546;2023-01-30T06:45:44;101723;;;6.48;87.77
62632;BME280;48703;51.248;-0.546;2023-01-30T06:48:46;101733;;;6.45;87.36
62632;BME280;48703;51.248;-0.546;2023-01-30T06:51:48;101740;;;6.45;86.20
62632;BME280;48703;51.248;-0.546;2023-01-30T06:54:50;101746;;;6.45;85.87
62632;BME280;48703;51.248;-0.546;2023-01-30T06:57:59;101753;;;6.43;85.63
62632;BME280;48703;51.248;-0.546;2023-01-30T07:00:54;101757;;;6.40;85.49
62632;BME280;48703;51.248;-0.546;2023-01-30T07:03:56;101757;;;6.35;84.43
62632;BME280;48703;51.248;-0.546;2023-01-30T07:06:58;101751;;;6.33;82.46
62632;BME280;48703;51.248;-0.546;2023-01-30T07:09:59;101748;;;6.30;83.29
62632;BME280;48703;51.248;-0.546;2023-01-30T07:13:01;101756;;;6.26;82.91
62632;BME280;48703;51.248;-0.546;2023-01-30T07:16:03;101762;;;6.22;80.54
62632;BME280;48703;51.248;-0.546;2023-01-30T07:19:05;101768;;;6.19;80.06
62632;BME280;48703;51.248;-0.546;2023-01-30T07:22:07;101776;;;6.16;79.59
62632;BME280;48703;51.248;-0.546;2023-01-30T07:25:09;101790;;;6.13;80.96
62632;BME280;48703;51.248;-0.546;2023-01-30T07:28:11;101799;;;6.08;78.88
62632;BME280;48703;51.248;-0.546;2023-01-30T07:31:13;101806;;;6.04;78.75
62632;BME280;48703;51.248;-0.546;2023-01-30T07:34:15;101815;;;6.00;80.28
62632;BME280;48703;51.248;-0.546;2023-01-30T07:37:16;101812;;;5.95;80.24
62632;BME280;48703;51.248;-0.546;2023-01-30T07:40:19;101815;;;5.92;81.33
62632;BME280;48703;51.248;-0.546;2023-01-30T07:43:20;101813;;;5.86;80.42
62632;BME280;48703;51.248;-0.546;2023-01-30T07:46:22;101818;;;5.83;81.02
62632;BME280;48703;51.248;-0.546;2023-01-30T07:49:24;101826;;;5.78;80.96
62632;BME280;48703;51.248;-0.546;2023-01-30T07:52:26;101831;;;5.74;81.17
62632;BME280;48703;51.248;-0.546;2023-01-30T07:55:28;101834;;;5.71;82.11
62632;BME280;48703;51.248;-0.546;2023-01-30T07:58:30;101838;;;5.67;82.35
62632;BME280;48703;51.248;-0.546;2023-01-30T08:01:32;101826;;;5.65;82.42
62632;BME280;48703;51.248;-0.546;2023-01-30T08:04:34;101845;;;5.61;82.67
62632;BME280;48703;51.248;-0.546;2023-01-30T08:07:36;101854;;;5.58;82.65
62632;BME280;48703;51.248;-0.546;2023-01-30T08:10:37;101843;;;5.57;82.96
62632;BME280;48703;51.248;-0.546;2023-01-30T08:13:39;101838;;;5.54;82.80
62632;BME280;48703;51.248;-0.546;2023-01-30T08:16:41;101839;;;5.51;83.01
62632;BME280;48703;51.248;-0.546;2023-01-30T08:19:43;101842;;;5.50;82.70
62632;BME280;48703;51.248;-0.546;2023-01-30T08:22:45;101846;;;5.48;82.29
62632;BME280;48703;51.248;-0.546;2023-01-30T08:25:47;101850;;;5.47;82.32
62632;BME280;48703;51.248;-0.546;2023-01-30T08:28:49;101859;;;5.47;82.95
62632;BME280;48703;51.248;-0.546;2023-01-30T08:31:55;101866;;;5.46;82.67
62632;BME280;48703;51.248;-0.546;2023-01-30T08:34:53;101884;;;5.46;82.39
62632;BME280;48703;51.248;-0.546;2023-01-30T08:37:54;101891;;;5.48;83.17
62632;BME280;48703;51.248;-0.546;2023-01-30T08:40:56;101889;;;5.47;82.79
62632;BME280;48703;51.248;-0.546;2023-01-30T08:43:58;101892;;;5.47;82.42
62632;BME280;48703;51.248;-0.546;2023-01-30T08:47:00;101897;;;5.48;82.70
62632;BME280;48703;51.248;-0.546;2023-01-30T08:50:02;101903;;;5.48;82.66
62632;BME280;48703;51.248;-0.546;2023-01-30T08:53:05;101907;;;5.48;82.21
62632;BME280;48703;51.248;-0.546;2023-01-30T08:56:06;101911;;;5.47;82.07
62632;BME280;48703;51.248;-0.546;2023-01-30T08:59:08;101920;;;5.48;82.25
62632;BME280;48703;51.248;-0.546;2023-01-30T09:02:10;101920;;;5.49;82.45
62632;BME280;48703;51.248;-0.546;2023-01-30T09:05:12;101918;;;5.51;82.23
62632;BME280;48703;51.248;-0.546;2023-01-30T09:08:13;101921;;;5.54;83.20
62632;BME280;48703;51.248;-0.546;2023-01-30T09:11:16;101920;;;5.55;81.75
62632;BME280;48703;51.248;-0.546;2023-01-30T09:14:17;101917;;;5.58;81.28
62632;BME280;48703;51.248;-0.546;2023-01-30T09:17:19;101919;;;5.61;80.93
62632;BME280;48703;51.248;-0.546;2023-01-30T09:20:21;101917;;;5.63;80.36
62632;BME280;48703;51.248;-0.546;2023-01-30T09:23:23;101918;;;5.67;79.33
62632;BME280;48703;51.248;-0.546;2023-01-30T09:26:25;101916;;;5.70;79.35
62632;BME280;48703;51.248;-0.546;2023-01-30T09:29:27;101919;;;5.74;79.61
62632;BME280;48703;51.248;-0.546;2023-01-30T09:32:29;101917;;;5.78;77.80
62632;BME280;48703;51.248;-0.546;2023-01-30T09:35:30;101911;;;5.82;78.45
62632;BME280;48703;51.248;-0.546;2023-01-30T09:38:32;101915;;;5.86;78.11
62632;BME280;48703;51.248;-0.546;2023-01-30T09:41:41;101927;;;5.88;77.97
62632;BME280;48703;51.248;-0.546;2023-01-30T09:46:39;101937;;;5.92;76.45
62632;BME280;48703;51.248;-0.546;2023-01-30T09:49:41;101938;;;5.95;76.04
62632;BME280;48703;51.248;-0.546;2023-01-30T09:52:45;101934;;;5.98;75.49
62632;BME280;48703;51.248;-0.546;2023-01-30T09:55:43;101936;;;5.99;75.76
62632;BME280;48703;51.248;-0.546;2023-01-30T09:58:46;101931;;;6.01;75.21
62632;BME280;48703;51.248;-0.546;2023-01-30T10:01:50;101928;;;6.02;75.38
62632;BME280;48703;51.248;-0.546;2023-01-30T10:04:49;101925;;;6.03;75.63
62632;BME280;48703;51.248;-0.546;2023-01-30T10:07:55;101923;;;6.05;74.94
62632;BME280;48703;51.248;-0.546;2023-01-30T10:10:54;101927;;;6.07;74.70
62632;BME280;48703;51.248;-0.546;2023-01-30T10:13:59;101935;;;6.10;74.73
62632;BME280;48703;51.248;-0.546;2023-01-30T10:16:58;101942;;;6.11;75.22
62632;BME280;48703;51.248;-0.546;2023-01-30T10:20:02;101958;;;6.15;74.48
62632;BME280;48703;51.248;-0.546;2023-01-30T10:23:04;101965;;;6.17;74.46
62632;BME280;48703;51.248;-0.546;2023-01-30T10:26:04;101964;;;6.20;73.91
62632;BME280;48703;51.248;-0.546;2023-01-30T10:29:05;101963;;;6.25;74.53
62632;BME280;48703;51.248;-0.546;2023-01-30T10:32:08;101954;;;6.29;74.00
62632;BME280;48703;51.248;-0.546;2023-01-30T10:35:13;101961;;;6.33;73.13
62632;BME280;48703;51.248;-0.546;2023-01-30T10:38:11;101969;;;6.36;74.63
62632;BME280;48703;51.248;-0.546;2023-01-30T10:41:13;101981;;;6.35;73.43
62632;BME280;48703;51.248;-0.546;2023-01-30T10:44:14;101977;;;6.40;73.61
62632;BME280;48703;51.248;-0.546;2023-01-30T10:47:22;101971;;;6.42;73.86
62632;BME280;48703;51.248;-0.546;2023-01-30T10:50:18;101973;;;6.48;73.36
62632;BME280;48703;51.248;-0.546;2023-01-30T10:53:21;101979;;;6.53;71.91
62632;BME280;48703;51.248;-0.546;2023-01-30T10:56:23;101983;;;6.57;72.66
62632;BME280;48703;51.248;-0.546;2023-01-30T10:59:23;101986;;;6.61;72.44
62632;BME280;48703;51.248;-0.546;2023-01-30T11:02:29;101975;;;6.65;72.48
62632;BME280;48703;51.248;-0.546;2023-01-30T11:05:29;101969;;;6.68;72.67
62632;BME280;48703;51.248;-0.546;2023-01-30T11:08:30;101979;;;6.73;72.60
62632;BME280;48703;51.248;-0.546;2023-01-30T11:11:32;101981;;;6.75;72.47
62632;BME280;48703;51.248;-0.546;2023-01-30T11:14:50;101982;;;6.80;72.29
62632;BME280;48703;51.248;-0.546;2023-01-30T11:17:35;101985;;;6.86;71.92
62632;BME280;48703;51.248;-0.546;2023-01-30T11:20:38;101981;;;6.90;71.99
62632;BME280;48703;51.248;-0.546;2023-01-30T11:23:39;101979;;;6.92;72.44
62632;BME280;48703;51.248;-0.546;2023-01-30T11:26:40;101988;;;7.00;69.84
62632;BME280;48703;51.248;-0.546;2023-01-30T11:29:42;101989;;;7.09;69.74
62632;BME280;48703;51.248;-0.546;2023-01-30T11:32:45;101986;;;7.14;69.33
62632;BME280;48703;51.248;-0.546;2023-01-30T11:35:51;101974;;;7.20;68.89
62632;BME280;48703;51.248;-0.546;2023-01-30T11:38:53;101978;;;7.25;68.42
62632;BME280;48703;51.248;-0.546;2023-01-30T11:41:56;101986;;;7.28;67.53
62632;BME280;48703;51.248;-0.546;2023-01-30T11:44:54;102000;;;7.34;66.54
62632;BME280;48703;51.248;-0.546;2023-01-30T11:47:54;101993;;;7.37;67.30
62632;BME280;48703;51.248;-0.546;2023-01-30T11:50:56;101995;;;7.40;67.90
62632;BME280;48703;51.248;-0.546;2023-01-30T11:53:58;101998;;;7.46;66.82
62632;BME280;48703;51.248;-0.546;2023-01-30T11:57:00;101992;;;7.54;66.89
62632;BME280;48703;51.248;-0.546;2023-01-30T12:00:01;101994;;;7.64;66.69
62632;BME280;48703;51.248;-0.546;2023-01-30T12:03:03;101995;;;7.68;65.86
62632;BME280;48703;51.248;-0.546;2023-01-30T12:06:05;101996;;;7.72;65.82
62632;BME280;48703;51.248;-0.546;2023-01-30T12:09:25;101993;;;7.72;67.14
62632;BME280;48703;51.248;-0.546;2023-01-30T12:12:22;101978;;;7.70;66.20
62632;BME280;48703;51.248;-0.546;2023-01-30T12:15:13;101972;;;7.70;66.77
62632;BME280;48703;51.248;-0.546;2023-01-30T12:18:15;101976;;;7.71;65.49
62632;BME280;48703;51.248;-0.546;2023-01-30T12:21:17;101981;;;7.75;65.88
62632;BME280;48703;51.248;-0.546;2023-01-30T12:24:18;101989;;;7.78;65.67
62632;BME280;48703;51.248;-0.546;2023-01-30T12:27:19;101991;;;7.81;65.31
62632;BME280;48703;51.248;-0.546;2023-01-30T12:30:23;101995;;;7.85;65.53
62632;BME280;48703;51.248;-0.546;2023-01-30T12:33:23;101997;;;7.91;66.26
62632;BME280;48703;51.248;-0.546;2023-01-30T12:36:27;101996;;;7.93;65.22
62632;BME280;48703;51.248;-0.546;2023-01-30T12:39:29;101994;;;7.96;64.94
62632;BME280;48703;51.248;-0.546;2023-01-30T12:42:33;101989;;;8.02;66.59
62632;BME280;48703;51.248;-0.546;2023-01-30T12:45:30;101995;;;8.05;65.34
62632;BME280;48703;51.248;-0.546;2023-01-30T12:48:43;101989;;;8.09;65.94
62632;BME280;48703;51.248;-0.546;2023-01-30T12:51:38;101984;;;8.13;65.78
62632;BME280;48703;51.248;-0.546;2023-01-30T12:54:38;101972;;;8.11;65.26
62632;BME280;48703;51.248;-0.546;2023-01-30T12:57:38;101981;;;8.12;65.03
62632;BME280;48703;51.248;-0.546;2023-01-30T13:00:42;101983;;;8.12;64.54
62632;BME280;48703;51.248;-0.546;2023-01-30T13:03:42;101987;;;8.15;63.93
62632;BME280;48703;51.248;-0.546;2023-01-30T13:06:47;101977;;;8.15;63.30
62632;BME280;48703;51.248;-0.546;2023-01-30T13:09:48;101972;;;8.16;64.32
62632;BME280;48703;51.248;-0.546;2023-01-30T13:12:48;101962;;;8.18;65.15
62632;BME280;48703;51.248;-0.546;2023-01-30T13:15:50;101951;;;8.22;65.16
62632;BME280;48703;51.248;-0.546;2023-01-30T13:18:51;101951;;;8.28;64.15
62632;BME280;48703;51.248;-0.546;2023-01-30T13:21:54;101952;;;8.32;64.86
62632;BME280;48703;51.248;-0.546;2023-01-30T13:24:57;101956;;;8.34;64.89
62632;BME280;48703;51.248;-0.546;2023-01-30T13:27:57;101950;;;8.37;64.68
62632;BME280;48703;51.248;-0.546;2023-01-30T13:30:58;101951;;;8.39;63.15
62632;BME280;48703;51.248;-0.546;2023-01-30T13:34:02;101950;;;8.40;64.24
62632;BME280;48703;51.248;-0.546;2023-01-30T13:37:02;101952;;;8.40;63.24
62632;BME280;48703;51.248;-0.546;2023-01-30T13:40:07;101951;;;8.36;63.27
62632;BME280;48703;51.248;-0.546;2023-01-30T13:43:10;101952;;;8.33;63.41
62632;BME280;48703;51.248;-0.546;2023-01-30T13:46:08;101955;;;8.31;63.42
62632;BME280;48703;51.248;-0.546;2023-01-30T13:49:11;101957;;;8.33;63.37
62632;BME280;48703;51.248;-0.546;2023-01-30T13:52:13;101953;;;8.39;63.91
62632;BME280;48703;51.248;-0.546;2023-01-30T13:55:14;101958;;;8.45;64.14
62632;BME280;48703;51.248;-0.546;2023-01-30T13:58:19;101958;;;8.50;63.33
62632;BME280;48703;51.248;-0.546;2023-01-30T14:01:17;101959;;;8.54;64.13
62632;BME280;48703;51.248;-0.546;2023-01-30T14:04:51;101967;;;8.56;63.98
62632;BME280;48703;51.248;-0.546;2023-01-30T14:07:22;101977;;;8.54;63.56
62632;BME280;48703;51.248;-0.546;2023-01-30T14:10:25;101980;;;8.50;63.24
62632;BME280;48703;51.248;-0.546;2023-01-30T14:13:25;101979;;;8.53;63.77
62632;BME280;48703;51.248;-0.546;2023-01-30T14:16:38;101974;;;8.53;63.19
62632;BME280;48703;51.248;-0.546;2023-01-30T14:19:31;101961;;;8.49;63.22
62632;BME280;48703;51.248;-0.546;2023-01-30T14:22:32;101958;;;8.50;63.57
62632;BME280;48703;51.248;-0.546;2023-01-30T14:25:34;101951;;;8.51;64.18
62632;BME280;48703;51.248;-0.546;2023-01-30T14:28:42;101953;;;8.54;65.18
62632;BME280;48703;51.248;-0.546;2023-01-30T14:31:45;101960;;;8.55;63.53
62632;BME280;48703;51.248;-0.546;2023-01-30T14:34:39;101956;;;8.52;63.49
62632;BME280;48703;51.248;-0.546;2023-01-30T14:37:49;101959;;;8.55;64.16
62632;BME280;48703;51.248;-0.546;2023-01-30T14:40:46;101976;;;8.60;63.95
62632;BME280;48703;51.248;-0.546;2023-01-30T14:43:48;101976;;;8.60;64.19
62632;BME280;48703;51.248;-0.546;2023-01-30T14:46:45;101984;;;8.64;64.16
62632;BME280;48703;51.248;-0.546;2023-01-30T14:49:47;101977;;;8.66;64.18
62632;BME280;48703;51.248;-0.546;2023-01-30T14:52:53;101982;;;8.62;63.86
62632;BME280;48703;51.248;-0.546;2023-01-30T14:55:57;101988;;;8.61;63.48
62632;BME280;48703;51.248;-0.546;2023-01-30T14:58:55;101988;;;8.56;64.08
62632;BME280;48703;51.248;-0.546;2023-01-30T15:01:58;101989;;;8.52;64.48
62632;BME280;48703;51.248;-0.546;2023-01-30T15:05:01;101995;;;8.52;64.54
62632;BME280;48703;51.248;-0.546;2023-01-30T15:08:04;102001;;;8.49;64.14
62632;BME280;48703;51.248;-0.546;2023-01-30T15:11:03;102004;;;8.48;64.96
62632;BME280;48703;51.248;-0.546;2023-01-30T15:14:03;102010;;;8.47;64.20
62632;BME280;48703;51.248;-0.546;2023-01-30T15:17:07;102008;;;8.54;66.72
62632;BME280;48703;51.248;-0.546;2023-01-30T15:20:08;102019;;;8.57;64.18
62632;BME280;48703;51.248;-0.546;2023-01-30T15:23:12;102015;;;8.59;64.53
62632;BME280;48703;51.248;-0.546;2023-01-30T15:26:14;102017;;;8.62;65.78
62632;BME280;48703;51.248;-0.546;2023-01-30T15:29:32;102022;;;8.67;64.88
62632;BME280;48703;51.248;-0.546;2023-01-30T15:32:14;102021;;;8.67;64.60
62632;BME280;48703;51.248;-0.546;2023-01-30T15:35:26;102020;;;8.65;64.55
62632;BME280;48703;51.248;-0.546;2023-01-30T15:38:22;102024;;;8.61;64.54
62632;BME280;48703;51.248;-0.546;2023-01-30T15:41:19;102025;;;8.54;64.87
62632;BME280;48703;51.248;-0.546;2023-01-30T15:44:26;102036;;;8.48;64.16
62632;BME280;48703;51.248;-0.546;2023-01-30T15:47:27;102041;;;8.41;65.24
62632;BME280;48703;51.248;-0.546;2023-01-30T15:50:25;102048;;;8.36;64.74
62632;BME280;48703;51.248;-0.546;2023-01-30T15:53:28;102053;;;8.32;65.10
62632;BME280;48703;51.248;-0.546;2023-01-30T15:56:29;102060;;;8.26;65.01
62632;BME280;48703;51.248;-0.546;2023-01-30T15:59:32;102062;;;8.21;65.12
62632;BME280;48703;51.248;-0.546;2023-01-30T16:02:33;102062;;;8.18;65.59
62632;BME280;48703;51.248;-0.546;2023-01-30T16:05:35;102060;;;8.15;65.65
62632;BME280;48703;51.248;-0.546;2023-01-30T16:08:36;102066;;;8.11;65.50
62632;BME280;48703;51.248;-0.546;2023-01-30T16:11:39;102072;;;8.05;65.73
62632;BME280;48703;51.248;-0.546;2023-01-30T16:14:40;102071;;;8.01;66.22
62632;BME280;48703;51.248;-0.546;2023-01-30T16:17:43;102077;;;7.96;65.94
62632;BME280;48703;51.248;-0.546;2023-01-30T16:20:45;102076;;;7.91;66.27
62632;BME280;48703;51.248;-0.546;2023-01-30T16:23:51;102076;;;7.86;66.47
62632;BME280;48703;51.248;-0.546;2023-01-30T16:26:49;102076;;;7.83;67.38
62632;BME280;48703;51.248;-0.546;2023-01-30T16:29:50;102078;;;7.78;67.42
62632;BME280;48703;51.248;-0.546;2023-01-30T16:32:52;102083;;;7.73;67.41